createdAt,value
2018-12-30T00:02:32.803Z,27.17
2018-12-30T00:05:01.804Z,27.27
2018-12-30T00:07:30.708Z,22.33
2018-12-30T00:09:59.220Z,13.10
2018-12-30T00:12:27.661Z,15.77
2018-12-30T00:14:56.276Z,23.73
2018-12-30T00:17:25.171Z,19.07
2018-12-30T00:19:54.365Z,19.73
2018-12-30T00:22:22.897Z,21.10
2018-12-30T00:24:51.344Z,16.43
2018-12-30T00:27:19.833Z,26.20
2018-12-30T00:29:48.359Z,20.63
2018-12-30T00:32:19.689Z,25.13
2018-12-30T00:34:48.190Z,14.77
2018-12-30T00:37:16.707Z,16.13
2018-12-30T00:39:45.208Z,27.80
2018-12-30T00:42:13.629Z,26.27
2018-12-30T00:44:42.168Z,14.03
2018-12-30T00:47:10.889Z,14.50
2018-12-30T00:49:39.318Z,22.60
2018-12-30T00:52:07.833Z,18.83
2018-12-30T00:54:36.359Z,26.83
2018-12-30T00:57:04.860Z,29.20
2018-12-30T00:59:33.289Z,18.37
2018-12-30T01:02:02.211Z,17.63
2018-12-30T01:04:30.964Z,25.53
2018-12-30T01:06:59.470Z,17.47
2018-12-30T01:09:27.928Z,14.70
2018-12-30T01:11:56.448Z,22.90
2018-12-30T01:14:24.945Z,24.83
2018-12-30T01:16:53.431Z,12.33
2018-12-30T01:19:21.953Z,17.30
2018-12-30T01:21:50.446Z,14.67
2018-12-30T01:24:18.972Z,23.07
2018-12-30T01:26:47.520Z,12.73
2018-12-30T01:29:16.311Z,22.17
2018-12-30T01:31:44.835Z,9.00
2018-12-30T01:34:13.324Z,21.10
2018-12-30T01:36:41.761Z,22.10
2018-12-30T01:39:29.615Z,22.70
2018-12-30T01:41:58.135Z,23.33
2018-12-30T01:44:26.563Z,17.73
2018-12-30T01:46:55.008Z,16.40
2018-12-30T01:49:23.495Z,5.77
2018-12-30T01:52:11.354Z,21.70
2018-12-30T01:54:39.843Z,32.63
2018-12-30T01:57:08.371Z,14.90
2018-12-30T01:59:36.904Z,21.87
2018-12-30T02:02:05.427Z,19.30
2018-12-30T02:04:33.987Z,19.60
2018-12-30T02:07:02.408Z,14.57
2018-12-30T02:09:30.928Z,11.63
2018-12-30T02:11:59.455Z,17.27
2018-12-30T02:14:27.868Z,6.47
2018-12-30T02:16:56.380Z,13.20
2018-12-30T02:19:24.810Z,21.57
2018-12-30T02:21:53.287Z,15.23
2018-12-30T02:24:21.768Z,13.90
2018-12-30T02:26:50.214Z,17.67
2018-12-30T02:29:19.040Z,19.57
2018-12-30T02:31:47.580Z,25.77
2018-12-30T02:34:48.024Z,19.17
2018-12-30T02:37:16.469Z,22.33
2018-12-30T02:39:44.975Z,21.80
2018-12-30T02:42:13.423Z,24.40
2018-12-30T02:44:41.864Z,24.03
2018-12-30T02:47:10.619Z,21.47
2018-12-30T02:49:39.314Z,24.13
2018-12-30T02:52:07.825Z,24.97
2018-12-30T02:54:36.235Z,19.30
2018-12-30T02:57:04.757Z,23.60
2018-12-30T02:59:33.249Z,28.77
2018-12-30T03:02:01.866Z,23.83
2018-12-30T03:04:30.363Z,25.43
2018-12-30T03:06:58.809Z,21.73
2018-12-30T03:09:27.263Z,30.63
2018-12-30T03:11:55.684Z,18.80
2018-12-30T03:14:24.167Z,24.17
2018-12-30T03:16:52.621Z,23.20
2018-12-30T03:19:21.036Z,16.70
2018-12-30T03:21:49.485Z,27.53
2018-12-30T03:24:37.311Z,21.13
2018-12-30T03:27:05.778Z,25.87
2018-12-30T03:29:34.196Z,27.93
2018-12-30T03:32:02.609Z,17.47
2018-12-30T03:34:31.051Z,18.30
2018-12-30T03:36:59.506Z,18.43
2018-12-30T03:39:39.927Z,22.17
2018-12-30T03:42:08.384Z,15.97
2018-12-30T03:44:36.800Z,15.20
2018-12-30T03:47:05.224Z,19.70
2018-12-30T03:49:33.671Z,16.03
2018-12-30T03:52:08.408Z,14.17
2018-12-30T03:54:32.251Z,26.17
2018-12-30T03:57:00.659Z,18.97
2018-12-30T04:02:23.787Z,23.10
2018-12-30T04:04:52.265Z,29.30
2018-12-30T04:07:20.728Z,18.07
2018-12-30T04:09:49.148Z,23.07
2018-12-30T04:12:17.570Z,25.87
2018-12-30T04:14:46.011Z,17.27
2018-12-30T04:17:14.423Z,36.77
2018-12-30T04:19:42.875Z,23.53
2018-12-30T04:22:16.837Z,26.90
2018-12-30T04:24:41.461Z,44.73
2018-12-30T04:27:09.875Z,31.17
2018-12-30T04:29:38.325Z,18.63
2018-12-30T04:32:06.735Z,30.83
2018-12-30T04:34:35.189Z,26.20
2018-12-30T04:37:23.027Z,25.70
2018-12-30T04:39:51.447Z,27.43
2018-12-30T04:42:19.867Z,32.10
2018-12-30T04:45:02.323Z,25.47
2018-12-30T04:47:30.761Z,38.70
2018-12-30T04:50:18.595Z,21.67
2018-12-30T04:52:47.048Z,15.67
2018-12-30T04:55:15.459Z,23.10
2018-12-30T04:58:03.248Z,15.10
2018-12-30T05:00:31.771Z,20.77
2018-12-30T05:03:00.210Z,16.23
2018-12-30T05:05:28.633Z,20.13
2018-12-30T05:07:57.075Z,28.30
2018-12-30T05:10:44.863Z,18.73
2018-12-30T05:13:32.658Z,21.93
2018-12-30T05:16:01.172Z,26.87
2018-12-30T05:18:29.592Z,34.23
2018-12-30T05:20:58.032Z,23.60
2018-12-30T05:23:26.448Z,29.60
2018-12-30T05:25:54.895Z,15.47
2018-12-30T05:28:23.313Z,17.70
2018-12-30T05:30:51.757Z,19.50
2018-12-30T05:33:20.172Z,22.03
2018-12-30T05:35:48.621Z,28.87
2018-12-30T05:38:17.027Z,24.33
2018-12-30T05:40:45.477Z,21.70
2018-12-30T05:43:13.896Z,17.23
2018-12-30T05:45:42.441Z,17.40
2018-12-30T05:48:30.196Z,22.60
2018-12-30T05:50:58.641Z,12.53
2018-12-30T05:53:27.086Z,13.03
2018-12-30T05:55:55.540Z,23.63
2018-12-30T05:58:24.008Z,25.37
2018-12-30T06:00:52.417Z,28.60
2018-12-30T06:03:20.839Z,20.27
2018-12-30T06:05:49.398Z,22.90
2018-12-30T06:08:17.878Z,20.90
2018-12-30T06:10:46.300Z,11.57
2018-12-30T06:13:14.739Z,34.67
2018-12-30T06:15:43.160Z,20.90
2018-12-30T06:18:11.608Z,22.10
2018-12-30T06:20:40.035Z,13.93
2018-12-30T06:23:08.459Z,12.53
2018-12-30T06:25:36.908Z,17.50
2018-12-30T06:28:05.323Z,20.53
2018-12-30T06:30:33.763Z,7.40
2018-12-30T06:33:02.177Z,13.03
2018-12-30T06:35:30.617Z,20.43
2018-12-30T06:37:59.035Z,29.37
2018-12-30T06:40:46.815Z,20.17
2018-12-30T06:43:34.600Z,13.60
2018-12-30T06:46:03.046Z,17.07
2018-12-30T06:48:31.474Z,14.73
2018-12-30T06:50:59.938Z,12.20
2018-12-30T06:53:28.361Z,10.77
2018-12-30T06:55:56.801Z,14.17
2018-12-30T06:58:25.214Z,15.77
2018-12-30T07:00:53.664Z,13.70
2018-12-30T07:03:22.085Z,10.23
2018-12-30T07:05:50.524Z,32.17
2018-12-30T07:08:18.977Z,12.23
2018-12-30T07:10:47.429Z,17.17
2018-12-30T07:13:15.835Z,15.73
2018-12-30T07:15:44.360Z,12.57
2018-12-30T07:21:01.563Z,19.00
2018-12-30T07:23:30.001Z,7.03
2018-12-30T07:25:58.423Z,15.03
2018-12-30T07:28:26.871Z,17.07
2018-12-30T07:30:55.288Z,8.53
2018-12-30T07:33:23.728Z,16.17
2018-12-30T07:35:52.191Z,15.67
2018-12-30T07:38:20.633Z,8.30
2018-12-30T07:40:49.121Z,27.23
2018-12-30T07:43:17.531Z,9.33
2018-12-30T07:45:46.014Z,28.93
2018-12-30T07:48:14.464Z,14.50
2018-12-30T07:50:42.880Z,19.67
2018-12-30T07:53:13.924Z,18.10
2018-12-30T07:55:41.906Z,16.63
2018-12-30T07:58:10.809Z,13.17
2018-12-30T08:00:39.261Z,18.33
2018-12-30T08:03:07.836Z,15.20
2018-12-30T08:05:36.647Z,32.07
2018-12-30T08:08:05.459Z,17.13
2018-12-30T08:10:34.437Z,19.53
2018-12-30T08:16:11.235Z,15.67
2018-12-30T08:18:39.847Z,13.77
2018-12-30T08:21:10.030Z,20.30
2018-12-30T08:23:38.680Z,11.27
2018-12-30T08:26:07.422Z,20.80
2018-12-30T08:28:36.000Z,12.17
2018-12-30T08:31:04.791Z,12.70
2018-12-30T08:33:33.369Z,19.90
2018-12-30T08:36:02.116Z,13.33
2018-12-30T08:38:32.223Z,23.63
2018-12-30T08:41:02.180Z,20.73
2018-12-30T08:43:32.524Z,14.20
2018-12-30T08:46:04.117Z,15.53
2018-12-30T08:48:32.686Z,22.10
2018-12-30T08:51:03.319Z,24.90
2018-12-30T08:53:51.258Z,21.47
2018-12-30T08:56:19.829Z,14.60
2018-12-30T08:58:50.451Z,26.37
2018-12-30T09:01:19.221Z,10.60
2018-12-30T09:04:07.023Z,25.40
2018-12-30T09:06:35.892Z,14.30
2018-12-30T09:09:08.493Z,21.50
2018-12-30T09:11:56.851Z,9.67
2018-12-30T09:14:29.691Z,18.53
2018-12-30T09:16:58.225Z,11.83
2018-12-30T09:19:27.211Z,8.80
2018-12-30T09:21:55.974Z,2.70
2018-12-30T09:24:24.674Z,20.03
2018-12-30T09:26:53.246Z,37.47
2018-12-30T09:29:22.211Z,14.00
2018-12-30T09:31:51.080Z,6.73
2018-12-30T09:34:19.621Z,17.47
2018-12-30T09:36:48.295Z,10.40
2018-12-30T09:39:16.909Z,17.23
2018-12-30T09:41:45.599Z,11.50
2018-12-30T09:44:21.935Z,12.17
2018-12-30T09:46:50.372Z,14.73
2018-12-30T09:49:19.665Z,15.60
2018-12-30T09:51:51.055Z,12.57
2018-12-30T09:54:19.885Z,11.40
2018-12-30T09:56:48.700Z,6.20
2018-12-30T09:59:17.664Z,11.30
2018-12-30T10:01:46.508Z,26.40
2018-12-30T10:04:34.367Z,9.67
2018-12-30T10:07:02.827Z,9.90
2018-12-30T10:09:31.248Z,14.70
2018-12-30T10:12:19.415Z,9.17
2018-12-30T10:14:48.350Z,14.73
2018-12-30T10:17:18.875Z,28.63
2018-12-30T10:19:47.435Z,22.30
2018-12-30T10:22:15.893Z,11.53
2018-12-30T10:24:44.755Z,6.53
2018-12-30T10:27:16.094Z,9.37
2018-12-30T10:29:45.568Z,14.20
2018-12-30T10:32:33.420Z,13.30
2018-12-30T10:35:01.868Z,13.10
2018-12-30T10:37:30.274Z,13.43
2018-12-30T10:40:01.732Z,13.77
2018-12-30T10:42:49.603Z,13.73
2018-12-30T10:45:30.265Z,14.13
2018-12-30T10:47:59.843Z,11.57
2018-12-30T10:50:28.286Z,8.40
2018-12-30T10:52:56.763Z,10.80
2018-12-30T10:55:25.244Z,26.47
2018-12-30T10:58:13.037Z,8.70
2018-12-30T11:00:41.532Z,18.80
2018-12-30T11:03:29.328Z,11.10
2018-12-30T11:05:58.047Z,15.20
2018-12-30T11:08:26.596Z,16.17
2018-12-30T11:10:55.028Z,5.30
2018-12-30T11:13:42.790Z,11.27
2018-12-30T11:16:11.222Z,5.17
2018-12-30T11:18:39.672Z,35.93
2018-12-30T11:21:08.104Z,12.20
2018-12-30T11:23:55.881Z,10.67
2018-12-30T11:26:24.308Z,12.97
2018-12-30T11:28:52.752Z,6.30
2018-12-30T11:31:40.542Z,6.53
2018-12-30T11:34:09.030Z,10.50
2018-12-30T11:36:56.810Z,18.93
2018-12-30T11:39:25.254Z,11.10
2018-12-30T11:41:54.839Z,25.50
2018-12-30T11:44:23.478Z,12.93
2018-12-30T11:46:51.903Z,13.90
2018-12-30T11:49:20.718Z,11.50
2018-12-30T11:51:49.227Z,4.83
2018-12-30T11:54:17.655Z,13.93
2018-12-30T11:56:46.186Z,10.40
2018-12-30T11:59:17.596Z,12.30
2018-12-30T12:01:46.162Z,6.33
2018-12-30T12:04:14.819Z,17.77
2018-12-30T12:06:43.245Z,14.97
2018-12-30T12:09:11.713Z,18.50
2018-12-30T12:11:40.154Z,13.03
2018-12-30T12:14:08.598Z,29.17
2018-12-30T12:16:56.387Z,25.43
2018-12-30T12:19:24.835Z,23.27
2018-12-30T12:21:53.297Z,14.50
2018-12-30T12:24:41.055Z,5.90
2018-12-30T12:27:09.503Z,12.43
2018-12-30T12:29:37.942Z,11.03
2018-12-30T12:32:06.412Z,36.73
2018-12-30T12:34:34.850Z,6.47
2018-12-30T12:37:03.326Z,13.70
2018-12-30T12:39:32.259Z,7.13
2018-12-30T12:42:00.706Z,22.97
2018-12-30T12:44:29.127Z,10.37
2018-12-30T12:46:57.592Z,14.80
2018-12-30T12:52:14.819Z,4.67
2018-12-30T12:54:43.237Z,11.80
2018-12-30T12:57:11.688Z,10.20
2018-12-30T12:59:40.145Z,13.47
2018-12-30T13:05:23.176Z,7.80
2018-12-30T13:07:51.966Z,26.10
2018-12-30T13:10:20.475Z,14.17
2018-12-30T13:13:08.270Z,11.07
2018-12-30T13:15:36.769Z,11.70
2018-12-30T13:18:05.342Z,17.07
2018-12-30T13:20:33.776Z,10.93
2018-12-30T13:23:02.237Z,29.27
2018-12-30T13:25:30.689Z,16.60
2018-12-30T13:27:59.209Z,13.37
2018-12-30T13:30:27.706Z,8.47
2018-12-30T13:32:56.240Z,15.63
2018-12-30T13:35:24.671Z,14.50
2018-12-30T13:37:53.118Z,19.93
2018-12-30T13:40:21.548Z,12.57
2018-12-30T13:42:50.004Z,14.77
2018-12-30T13:45:18.450Z,7.80
2018-12-30T13:47:46.877Z,9.30
2018-12-30T13:50:15.332Z,10.10
2018-12-30T13:55:58.575Z,4.87
2018-12-30T13:58:27.001Z,14.83
2018-12-30T14:00:55.451Z,14.43
2018-12-30T14:03:23.906Z,10.80
2018-12-30T14:05:52.711Z,11.40
2018-12-30T14:08:40.514Z,19.03
2018-12-30T14:11:08.951Z,25.90
2018-12-30T14:13:37.408Z,20.77
2018-12-30T14:16:05.923Z,21.27
2018-12-30T14:18:34.378Z,17.50
2018-12-30T14:21:22.163Z,13.50
2018-12-30T14:23:50.629Z,14.90
2018-12-30T14:26:19.124Z,13.00
2018-12-30T14:28:47.572Z,16.27
2018-12-30T14:31:16.056Z,13.73
2018-12-30T14:33:44.520Z,24.53
2018-12-30T14:36:12.949Z,17.10
2018-12-30T14:38:41.480Z,16.70
2018-12-30T14:41:09.926Z,26.13
2018-12-30T14:43:57.719Z,16.40
2018-12-30T14:46:38.132Z,21.30
2018-12-30T14:49:06.575Z,27.10
2018-12-30T14:51:35.033Z,38.07
2018-12-30T14:54:03.479Z,28.77
2018-12-30T14:56:51.245Z,25.80
2018-12-30T14:59:31.960Z,37.80
2018-12-30T15:02:00.395Z,29.83
2018-12-30T15:04:34.327Z,18.40
2018-12-30T15:07:22.117Z,32.30
2018-12-30T15:10:02.379Z,29.60
2018-12-30T15:12:30.828Z,27.33
2018-12-30T15:14:59.255Z,27.70
2018-12-30T15:17:27.707Z,31.67
2018-12-30T15:19:56.148Z,27.93
2018-12-30T15:22:24.596Z,29.37
2018-12-30T15:24:53.015Z,25.50
2018-12-30T15:27:24.377Z,30.63
2018-12-30T15:29:52.815Z,36.27
2018-12-30T15:32:21.292Z,34.37
2018-12-30T15:34:49.767Z,20.33
2018-12-30T15:37:18.197Z,36.07
2018-12-30T15:39:46.663Z,31.13
2018-12-30T15:42:18.898Z,29.13
2018-12-30T15:44:45.286Z,29.70
2018-12-30T15:47:13.704Z,35.30
2018-12-30T15:50:01.672Z,30.50
2018-12-30T15:52:30.087Z,31.10
2018-12-30T15:54:58.694Z,25.70
2018-12-30T15:57:27.118Z,26.70
2018-12-30T15:59:55.571Z,24.17
2018-12-30T16:02:24.006Z,28.10
2018-12-30T16:04:52.514Z,23.90
2018-12-30T16:07:20.971Z,35.80
2018-12-30T16:09:49.465Z,25.13
2018-12-30T16:12:37.245Z,34.50
2018-12-30T16:15:07.606Z,34.83
2018-12-30T16:17:36.056Z,27.60
2018-12-30T16:20:06.023Z,31.00
2018-12-30T16:22:34.468Z,29.07
2018-12-30T16:25:02.971Z,32.53
2018-12-30T16:27:31.393Z,31.20
2018-12-30T16:29:59.906Z,34.47
2018-12-30T16:32:28.407Z,34.30
2018-12-30T16:34:56.830Z,36.60
2018-12-30T16:37:25.241Z,28.00
2018-12-30T16:39:53.683Z,39.23
2018-12-30T16:42:22.098Z,31.90
2018-12-30T16:44:50.645Z,37.63
2018-12-30T16:47:19.090Z,35.23
2018-12-30T16:49:47.546Z,31.53
2018-12-30T16:52:15.983Z,38.10
2018-12-30T16:54:44.499Z,36.90
2018-12-30T16:57:12.999Z,26.43
2018-12-30T16:59:41.474Z,34.37
2018-12-30T17:02:09.903Z,31.83
2018-12-30T17:04:38.443Z,35.83
2018-12-30T17:07:06.963Z,38.87
2018-12-30T17:09:35.393Z,31.93
2018-12-30T17:12:03.846Z,44.93
2018-12-30T17:14:32.294Z,44.90
2018-12-30T17:17:20.069Z,41.77
2018-12-30T17:19:48.479Z,41.70
2018-12-30T17:22:16.932Z,33.60
2018-12-30T17:24:45.374Z,34.90
2018-12-30T17:27:13.855Z,35.23
2018-12-30T17:29:42.330Z,35.90
2018-12-30T17:32:10.759Z,39.53
2018-12-30T17:34:39.368Z,33.87
2018-12-30T17:37:07.860Z,41.47
2018-12-30T17:39:36.315Z,34.43
2018-12-30T17:42:04.769Z,34.27
2018-12-30T17:44:33.196Z,32.80
2018-12-30T17:47:01.799Z,29.87
2018-12-30T17:49:31.965Z,30.27
2018-12-30T17:52:00.507Z,34.50
2018-12-30T17:54:29.089Z,32.80
2018-12-30T17:56:59.472Z,33.07
2018-12-30T17:59:28.242Z,30.40
2018-12-30T18:01:56.698Z,33.00
2018-12-30T18:04:25.267Z,34.13
2018-12-30T18:06:55.775Z,38.60
2018-12-30T18:09:24.509Z,36.60
2018-12-30T18:11:53.402Z,38.20
2018-12-30T18:14:22.394Z,46.30
2018-12-30T18:16:51.168Z,45.40
2018-12-30T18:19:19.742Z,42.87
2018-12-30T18:21:52.241Z,34.90
2018-12-30T18:24:22.573Z,52.07
2018-12-30T18:26:52.546Z,48.60
2018-12-30T18:29:21.276Z,32.60
2018-12-30T18:31:51.025Z,32.10
2018-12-30T18:34:21.467Z,37.90
2018-12-30T18:36:51.245Z,40.50
2018-12-30T18:39:39.060Z,43.03
2018-12-30T18:42:08.202Z,33.60
2018-12-30T18:44:37.251Z,42.27
2018-12-30T18:47:06.251Z,40.00
2018-12-30T18:49:35.357Z,34.10
2018-12-30T18:52:05.947Z,19.70
2018-12-30T18:54:38.421Z,40.50
2018-12-30T18:57:09.502Z,30.53
2018-12-30T18:59:38.091Z,44.53
2018-12-30T19:05:01.745Z,43.97
2018-12-30T19:07:30.230Z,30.50
2018-12-30T19:09:58.656Z,36.97
2018-12-30T19:12:27.112Z,34.83
2018-12-30T19:14:55.628Z,47.13
2018-12-30T19:17:24.056Z,39.87
2018-12-30T19:19:52.507Z,30.40
2018-12-30T19:22:40.299Z,34.87
2018-12-30T19:25:08.778Z,50.63
2018-12-30T19:27:37.204Z,50.93
2018-12-30T19:30:07.984Z,53.03
2018-12-30T19:32:36.407Z,48.93
2018-12-30T19:35:05.499Z,21.90
2018-12-30T19:37:33.968Z,40.43
2018-12-30T19:40:02.786Z,78.60
2018-12-30T19:42:31.233Z,51.83
2018-12-30T19:44:59.652Z,44.17
2018-12-30T19:47:28.106Z,47.07
2018-12-30T19:49:56.699Z,23.13
2018-12-30T19:52:25.124Z,36.03
2018-12-30T19:54:53.666Z,40.10
2018-12-30T19:57:22.098Z,46.07
2018-12-30T20:00:10.326Z,14.33
2018-12-30T20:02:38.776Z,36.27
2018-12-30T20:05:07.286Z,39.23
2018-12-30T20:07:35.707Z,58.97
2018-12-30T20:10:05.403Z,55.20
2018-12-30T20:12:53.173Z,29.00
2018-12-30T20:15:21.689Z,34.27
2018-12-30T20:17:50.115Z,46.00
2018-12-30T20:20:18.544Z,38.33
2018-12-30T20:22:46.999Z,42.67
2018-12-30T20:25:15.432Z,44.87
2018-12-30T20:27:43.888Z,64.70
2018-12-30T20:30:12.312Z,45.83
2018-12-30T20:32:40.785Z,18.63
2018-12-30T20:35:09.239Z,48.23
2018-12-30T20:37:37.690Z,54.03
2018-12-30T20:40:07.033Z,46.63
2018-12-30T20:42:35.594Z,29.27
2018-12-30T20:45:04.835Z,97.40
2018-12-30T20:47:33.289Z,34.67
2018-12-30T20:50:14.292Z,31.33
2018-12-30T20:52:42.743Z,63.03
2018-12-30T20:55:11.162Z,42.67
2018-12-30T20:57:39.620Z,50.43
2018-12-30T21:00:09.019Z,37.53
2018-12-30T21:02:37.504Z,43.37
2018-12-30T21:05:06.208Z,17.27
2018-12-30T21:07:34.707Z,66.80
2018-12-30T21:10:03.431Z,91.97
2018-12-30T21:12:31.910Z,78.10
2018-12-30T21:15:00.350Z,91.17
2018-12-30T21:17:28.840Z,100.57
2018-12-30T21:19:57.295Z,96.20
2018-12-30T21:22:45.112Z,59.57
2018-12-30T21:25:13.608Z,44.13
2018-12-30T21:27:42.036Z,45.83
2018-12-30T21:30:10.495Z,128.43
2018-12-30T21:32:38.924Z,80.17
2018-12-30T21:35:07.446Z,71.50
2018-12-30T21:37:35.881Z,112.23
2018-12-30T21:40:05.667Z,61.27
2018-12-30T21:42:34.094Z,90.50
2018-12-30T21:45:02.618Z,98.10
2018-12-30T21:47:50.375Z,70.53
2018-12-30T21:50:18.818Z,103.17
2018-12-30T21:52:47.262Z,63.10
2018-12-30T21:55:15.707Z,89.80
2018-12-30T22:00:39.634Z,58.43
2018-12-30T22:03:08.091Z,77.47
2018-12-30T22:05:36.576Z,74.30
2018-12-30T22:08:05.023Z,30.90
2018-12-30T22:10:33.479Z,66.73
2018-12-30T22:13:01.903Z,100.57
2018-12-30T22:15:30.362Z,65.93
2018-12-30T22:17:58.784Z,61.63
2018-12-30T22:20:27.308Z,52.00
2018-12-30T22:22:55.830Z,74.67
2018-12-30T22:25:24.351Z,44.97
2018-12-30T22:27:52.779Z,50.10
2018-12-30T22:30:21.232Z,85.87
2018-12-30T22:33:09.016Z,67.60
2018-12-30T22:35:37.494Z,50.87
2018-12-30T22:38:05.975Z,48.47
2018-12-30T22:40:34.399Z,64.37
2018-12-30T22:43:03.155Z,72.67
2018-12-30T22:45:31.619Z,65.90
2018-12-30T22:48:00.128Z,78.27
2018-12-30T22:50:28.551Z,63.27
2018-12-30T22:52:56.997Z,51.43
2018-12-30T22:55:25.422Z,58.97
2018-12-30T22:57:53.967Z,50.17
2018-12-30T23:00:24.031Z,81.40
2018-12-30T23:02:52.491Z,65.80
2018-12-30T23:05:20.944Z,57.17
2018-12-30T23:07:49.375Z,69.30
2018-12-30T23:10:17.836Z,66.67
2018-12-30T23:12:46.279Z,66.90
2018-12-30T23:15:34.073Z,62.53
2018-12-30T23:18:02.499Z,62.23
2018-12-30T23:20:30.944Z,48.90
2018-12-30T23:23:18.711Z,59.43
2018-12-30T23:28:42.267Z,69.13
2018-12-30T23:31:10.690Z,64.40
2018-12-30T23:33:58.480Z,72.40
2018-12-30T23:36:26.908Z,68.07
2018-12-30T23:38:55.351Z,86.90
2018-12-30T23:41:23.793Z,43.17
2018-12-30T23:44:11.588Z,73.40
2018-12-30T23:46:40.011Z,27.40
2018-12-30T23:49:08.481Z,82.60
2018-12-30T23:51:37.024Z,105.47
2018-12-30T23:54:24.792Z,75.90
2018-12-30T23:56:53.240Z,75.37
2018-12-30T23:59:21.674Z,107.33
